Airfield :
LOGIN :

Register | Disclaimer

   EN    FR    IT 

 










Legend :    VFR   Marginal VFR   IFR   Intensive IFR   Very Intensive IFR
Visi :
Ceiling :
>= 8 km
>= 3000ft
5 to 8 km
1000 to 3000 ft
1500m to 5 km
500 to 1000 ft
800 to 1500m
200 to 500 ft
< 800m
< 200 ft
Symbols :   Thunderstorms  Fog  Heavy snow  Heavy precipitations  Wind > 20 kt
SIGMETs :     Misc.  Thunderstorms  Icing  Turbulence  Mountain Waves  Volcanic Ashes







- Airport Elevation : 404 ft
- IATA code : WRO


EPWR - Wroclaw

CURRENT METAR :
  • 221730Z 10006KT 2600 BR NSC M09/M10 Q1011

EXPIRED METARs :
  • 221700Z 10005KT 3200 BR NSC M08/M10 Q1011
  • 221630Z 10006KT 3500 BR FEW008 M08/M09 Q1012
  • 221600Z 09004KT 4100 BR SCT007 M08/M09 Q1012
  • 221530Z 10007KT 4500 BR BKN007 M06/M07 Q1012
  • 221500Z 10005KT 070V140 3000 -SG BR FEW003 BKN006 M06/M07 Q1012

TAF TAF EPWR
Valid from the 22 at 18:00 until the 23 at 18:00 UTC


221730Z 2218/2318 10008KT 3000 BR NSC
BECMG 2218/2221 1500 BR BKN005
TEMPO 2221/2308 1100 BR BKN002
PROB40 2221/2303 0700 FZFG
BECMG 2308/2311 7000 BKN010
No reported NOTAMs for that airfield.



MET'MAP, your aeronautical weather chart ! - Copyright ORBIFLY December 2007 - Disclaimer

ORBIFLY MET'MAP TEAM :

Programming & Development : Alexandra Zaïnal
Concept & Development : Baudouin d'Aumeries
Co-Development & Prog : Marc-Olivier Méhu
Technical & hardware support : Manuel Goepfert

Contact : metmap@orbifly.com




SOURCES & CREDITS :

   NOAA